Weather at Little's Farm

Public forecast

Using degrees Celsius for public forecast. Weather courtesy of forecast.io.

Closest aviation weather report (METAR) to Little's Farm

Closest report is Toronto Lester B. Pearson International Airport, 10.0 nm (18.5 km) SE.

2024/05/30 04:00 (retrieved 35 minutes ago)

CYYZ 300400Z 35014KT 15SM SKC 12/00 A3007 RMK SLP186

Closest aviation forecast (TAF) to Little's Farm

Forecast is more than 6 hours old.

Closest forecast is Niagara District Airport, 45.3 nm (83.8 km) SE.

2024/05/29 20:00 (retrieved 9 hours ago)

TAF CYSN 291941Z 2920/3001 36008KT P6SM SCT120 RMK NXT FCST BY 301300Z